Time;durP1;ratioP1;P1;durP2;ratioP2;P2;SDS_P1;SDS_P2;PMS_P1;PMS_P2;Temp;Humidity;BMP_temperature;BMP_pressure;BME280_temperature;BME280_humidity;BME280_pressure;Samples;Min_cycle;Max_cycle;Signal;HPM_P1;HPM_P2
2023/08/22 00:00:07;;;;;;;6.13;2.70;;;;;;;;;;4992962;28;25168;-75
2023/08/22 00:02:33;;;;;;;8.32;2.75;;;;;;;;;;4991640;28;25062;-72
2023/08/22 00:04:59;;;;;;;7.05;2.55;;;;;;;;;;4990985;28;25073;-73
2023/08/22 00:07:25;;;;;;;8.23;2.70;;;;;;;;;;4986606;28;25139;-72
2023/08/22 00:09:51;;;;;;;7.00;2.58;;;;;;;;;;4984078;28;25073;-73
2023/08/22 00:12:18;;;;;;;7.22;2.70;;;;;;;;;;4982450;28;25117;-74
2023/08/22 00:14:45;;;;;;;6.38;2.50;;;;;;;;;;4989566;28;25075;-73
2023/08/22 00:17:11;;;;;;;2.88;2.13;;;;;;;;;;4983971;28;25096;-73
2023/08/22 00:19:40;;;;;;;5.35;2.60;;;;;;;;;;4993670;28;25161;-74
2023/08/22 00:22:06;;;;;;;6.70;2.35;;;;;;;;;;4986216;28;25101;-75
2023/08/22 00:24:32;;;;;;;7.28;2.45;;;;;;;;;;4992428;28;25104;-73
2023/08/22 00:26:59;;;;;;;3.88;2.35;;;;;;;;;;4988837;28;24998;-73
2023/08/22 00:29:25;;;;;;;6.18;2.65;;;;;;;;;;4996851;28;25054;-73
2023/08/22 00:31:51;;;;;;;8.00;3.22;;;;;;;;;;4987254;28;25088;-73
2023/08/22 00:34:17;;;;;;;5.03;2.58;;;;;;;;;;4987096;28;25065;-72
2023/08/22 00:36:43;;;;;;;7.03;2.90;;;;;;;;;;4993933;28;25093;-73
2023/08/22 00:39:09;;;;;;;5.85;2.42;;;;;;;;;;4991667;28;25080;-74
2023/08/22 00:41:35;;;;;;;6.93;2.67;;;;;;;;;;4979487;28;25069;-74
2023/08/22 00:44:01;;;;;;;7.85;2.80;;;;;;;;;;4981554;28;25084;-76
2023/08/22 00:46:27;;;;;;;4.70;2.70;;;;;;;;;;4989601;28;25075;-73
2023/08/22 00:48:53;;;;;;;5.28;2.60;;;;;;;;;;4984750;28;25142;-73
2023/08/22 00:51:20;;;;;;;5.43;2.47;;;;;;;;;;4987739;28;25118;-74
2023/08/22 00:53:46;;;;;;;4.13;2.80;;;;;;;;;;4974834;28;25075;-72
2023/08/22 00:56:12;;;;;;;6.40;2.47;;;;;;;;;;4977400;28;25081;-73
2023/08/22 00:58:38;;;;;;;6.75;3.05;;;;;;;;;;4989704;28;25056;-72
2023/08/22 01:01:04;;;;;;;7.80;3.45;;;;;;;;;;4989584;28;25060;-74
2023/08/22 01:03:30;;;;;;;3.90;2.60;;;;;;;;;;4980660;28;25050;-74
2023/08/22 01:06:03;;;;;;;8.30;3.00;;;;;;;;;;4984471;28;25060;-71
2023/08/22 01:08:28;;;;;;;;;;;;;;;;;;4977421;28;25078;-72
2023/08/22 01:10:56;;;;;;;7.35;2.67;;;;;;;;;;4983289;28;25097;-73
2023/08/22 01:13:25;;;;;;;2.70;2.40;;;;;;;;;;4976840;28;25072;-73
2023/08/22 01:15:52;;;;;;;7.80;3.20;;;;;;;;;;4989430;28;25086;-73
2023/08/22 01:18:18;;;;;;;6.53;2.17;;;;;;;;;;4983588;28;25061;-74
2023/08/22 01:20:44;;;;;;;6.00;2.75;;;;;;;;;;4992701;28;25275;-73
2023/08/22 01:23:11;;;;;;;10.20;3.60;;;;;;;;;;4980379;28;25074;-74
2023/08/22 01:25:37;;;;;;;8.32;2.70;;;;;;;;;;4987163;28;25069;-73
2023/08/22 01:28:05;;;;;;;5.35;3.25;;;;;;;;;;4978035;28;25054;-73
2023/08/22 01:30:50;;;;;;;7.22;3.08;;;;;;;;;;4990679;28;25097;-73
2023/08/22 01:33:25;;;;;;;7.10;3.15;;;;;;;;;;4982031;28;25047;-74
2023/08/22 01:35:53;;;;;;;7.50;2.90;;;;;;;;;;4996612;28;25061;-74
2023/08/22 01:38:21;;;;;;;5.05;3.15;;;;;;;;;;4988863;28;25056;-74
2023/08/22 01:40:48;;;;;;;6.63;2.60;;;;;;;;;;4994023;28;25049;-74
2023/08/22 01:43:14;;;;;;;5.05;2.80;;;;;;;;;;4986351;28;25066;-73
2023/08/22 01:45:40;;;;;;;5.25;3.47;;;;;;;;;;5004362;28;25108;-75
2023/08/22 01:48:06;;;;;;;5.65;3.05;;;;;;;;;;4983348;28;25043;-73
2023/08/22 01:50:32;;;;;;;7.50;3.67;;;;;;;;;;4984049;28;25073;-73
2023/08/22 01:52:58;;;;;;;8.75;3.65;;;;;;;;;;4990390;28;25071;-73
2023/08/22 01:55:24;;;;;;;5.28;3.72;;;;;;;;;;4986908;28;25059;-74
2023/08/22 01:57:50;;;;;;;6.70;3.22;;;;;;;;;;4979511;28;25092;-73
2023/08/22 02:00:16;;;;;;;6.68;3.05;;;;;;;;;;4997043;28;25112;-73
2023/08/22 02:02:42;;;;;;;6.18;3.90;;;;;;;;;;4982970;28;25134;-73
2023/08/22 02:05:08;;;;;;;10.68;3.70;;;;;;;;;;4983439;28;25067;-73
2023/08/22 02:07:35;;;;;;;5.30;2.83;;;;;;;;;;4987873;28;25077;-73
2023/08/22 02:10:02;;;;;;;10.70;3.40;;;;;;;;;;4984027;28;25064;-73
2023/08/22 02:12:28;;;;;;;5.90;3.28;;;;;;;;;;4988840;28;25156;-73
2023/08/22 02:14:55;;;;;;;7.75;3.63;;;;;;;;;;4992303;28;25150;-72
2023/08/22 02:17:20;;;;;;;7.55;3.35;;;;;;;;;;4989832;28;25065;-74
2023/08/22 02:19:47;;;;;;;6.05;3.30;;;;;;;;;;4990299;28;25064;-72
2023/08/22 02:22:13;;;;;;;9.15;3.22;;;;;;;;;;4987853;28;25065;-77
2023/08/22 02:24:39;;;;;;;5.38;3.30;;;;;;;;;;4985243;28;25070;-75
2023/08/22 02:27:05;;;;;;;5.45;3.70;;;;;;;;;;4996563;28;25096;-75
2023/08/22 02:29:31;;;;;;;11.65;4.00;;;;;;;;;;4983881;28;25084;-74
2023/08/22 02:31:57;;;;;;;8.60;3.58;;;;;;;;;;4984869;28;25103;-72
2023/08/22 02:34:24;;;;;;;9.52;3.63;;;;;;;;;;4977886;28;25161;-73
2023/08/22 02:36:50;;;;;;;7.43;4.20;;;;;;;;;;4986131;28;25134;-73
2023/08/22 02:39:16;;;;;;;6.78;3.95;;;;;;;;;;4992394;28;25061;-74
2023/08/22 02:41:42;;;;;;;8.30;3.95;;;;;;;;;;4982566;28;25068;-74
2023/08/22 02:44:08;;;;;;;10.43;3.97;;;;;;;;;;4985700;28;25096;-73
2023/08/22 02:46:34;;;;;;;7.65;3.80;;;;;;;;;;4985872;28;25065;-72
2023/08/22 02:49:00;;;;;;;7.10;4.18;;;;;;;;;;4990193;28;25086;-74
2023/08/22 02:51:27;;;;;;;9.20;4.30;;;;;;;;;;4989874;28;25106;-74
2023/08/22 02:53:53;;;;;;;11.38;4.43;;;;;;;;;;4977876;28;25041;-72
2023/08/22 02:56:19;;;;;;;11.20;5.70;;;;;;;;;;4984237;28;25063;-73
2023/08/22 02:58:46;;;;;;;11.93;5.43;;;;;;;;;;4986735;28;25063;-73
2023/08/22 03:01:12;;;;;;;6.18;4.57;;;;;;;;;;4985588;28;25135;-74
2023/08/22 03:03:38;;;;;;;11.50;5.10;;;;;;;;;;4990712;28;25063;-73
2023/08/22 03:06:05;;;;;;;11.70;5.95;;;;;;;;;;4984587;28;25085;-73
2023/08/22 03:08:31;;;;;;;10.93;5.47;;;;;;;;;;4990950;28;25053;-73
2023/08/22 03:11:03;;;;;;;8.98;5.80;;;;;;;;;;4997120;28;25047;-73
2023/08/22 03:13:30;;;;;;;9.63;5.32;;;;;;;;;;4975715;28;25075;-73
2023/08/22 03:15:58;;;;;;;11.98;5.88;;;;;;;;;;4987104;28;25083;-73
2023/08/22 03:18:25;;;;;;;11.73;6.07;;;;;;;;;;4983065;28;25159;-74
2023/08/22 03:20:52;;;;;;;13.30;6.22;;;;;;;;;;4994384;28;25142;-71
2023/08/22 03:23:18;;;;;;;13.70;6.72;;;;;;;;;;4980879;28;25083;-72
2023/08/22 03:25:44;;;;;;;13.32;6.45;;;;;;;;;;4986119;28;25055;-72
2023/08/22 03:28:10;;;;;;;11.18;6.50;;;;;;;;;;4982239;28;25125;-72
2023/08/22 03:30:36;;;;;;;18.75;6.93;;;;;;;;;;4986396;28;25054;-74
2023/08/22 03:33:02;;;;;;;11.57;7.50;;;;;;;;;;4985176;28;25074;-73
2023/08/22 03:35:28;;;;;;;18.60;7.10;;;;;;;;;;4987324;28;25073;-74
2023/08/22 03:37:54;;;;;;;16.70;7.75;;;;;;;;;;4996275;28;25062;-72
2023/08/22 03:40:20;;;;;;;10.77;7.10;;;;;;;;;;4992522;28;25096;-72
2023/08/22 03:42:46;;;;;;;14.80;6.85;;;;;;;;;;4992955;28;25056;-75
2023/08/22 03:45:12;;;;;;;18.33;7.30;;;;;;;;;;4999138;28;25067;-72
2023/08/22 03:47:38;;;;;;;13.82;7.72;;;;;;;;;;4975192;28;25140;-73
2023/08/22 03:50:06;;;;;;;14.60;7.50;;;;;;;;;;4979312;28;25057;-74
2023/08/22 03:52:32;;;;;;;13.63;7.40;;;;;;;;;;4994348;28;25055;-72
2023/08/22 03:54:58;;;;;;;16.15;7.55;;;;;;;;;;4992651;28;25057;-72
2023/08/22 03:57:24;;;;;;;14.63;7.28;;;;;;;;;;4982089;28;25143;-73
2023/08/22 03:59:50;;;;;;;13.52;7.95;;;;;;;;;;4991798;28;25077;-74
2023/08/22 04:02:16;;;;;;;15.70;7.72;;;;;;;;;;4983925;28;25060;-72
2023/08/22 04:04:42;;;;;;;15.93;7.78;;;;;;;;;;4985600;28;25067;-74
2023/08/22 04:07:08;;;;;;;15.88;8.20;;;;;;;;;;4986985;28;25077;-73
2023/08/22 04:09:34;;;;;;;18.77;8.50;;;;;;;;;;4977123;28;25154;-73
2023/08/22 04:12:00;;;;;;;14.77;8.52;;;;;;;;;;4979627;28;25079;-72
2023/08/22 04:14:26;;;;;;;17.60;9.43;;;;;;;;;;4989245;28;25069;-77
2023/08/22 04:16:52;;;;;;;16.17;7.32;;;;;;;;;;4973937;28;25122;-72
2023/08/22 04:19:18;;;;;;;15.95;8.95;;;;;;;;;;4978922;28;25088;-73
2023/08/22 04:21:44;;;;;;;15.30;7.97;;;;;;;;;;4991897;28;25071;-72
2023/08/22 04:24:11;;;;;;;19.67;9.13;;;;;;;;;;4985617;28;25059;-72
2023/08/22 04:26:37;;;;;;;12.38;8.50;;;;;;;;;;4983769;28;25149;-74
2023/08/22 04:29:03;;;;;;;15.95;8.60;;;;;;;;;;4977356;28;25092;-72
2023/08/22 04:31:29;;;;;;;19.27;9.50;;;;;;;;;;4986065;28;25054;-73
2023/08/22 04:33:55;;;;;;;15.27;9.95;;;;;;;;;;4999929;28;25102;-72
2023/08/22 04:36:21;;;;;;;15.57;9.98;;;;;;;;;;4982903;28;25082;-75
2023/08/22 04:38:49;;;;;;;20.83;10.35;;;;;;;;;;4976745;28;25110;-74
2023/08/22 04:41:16;;;;;;;15.85;9.13;;;;;;;;;;4984585;28;25072;-73
2023/08/22 04:43:42;;;;;;;18.70;9.77;;;;;;;;;;4979541;28;25115;-74
2023/08/22 04:46:08;;;;;;;17.27;9.18;;;;;;;;;;4993544;28;25077;-72
2023/08/22 04:48:34;;;;;;;18.33;9.30;;;;;;;;;;4994443;28;25093;-74
2023/08/22 04:51:00;;;;;;;20.63;9.50;;;;;;;;;;4991384;28;25128;-74
2023/08/22 04:53:26;;;;;;;21.85;10.18;;;;;;;;;;4989639;28;25073;-74
2023/08/22 04:55:52;;;;;;;18.40;10.48;;;;;;;;;;5000431;28;25075;-75
2023/08/22 04:58:18;;;;;;;14.65;9.15;;;;;;;;;;5007524;28;25162;-75
2023/08/22 05:00:44;;;;;;;15.85;8.55;;;;;;;;;;5010089;28;25052;-73
2023/08/22 05:03:10;;;;;;;20.42;9.60;;;;;;;;;;5000131;28;25075;-73
2023/08/22 05:05:36;;;;;;;18.60;9.45;;;;;;;;;;4983900;28;25063;-74
2023/08/22 05:08:02;;;;;;;20.02;8.85;;;;;;;;;;4986176;28;25068;-73
2023/08/22 05:10:31;;;;;;;13.93;8.93;;;;;;;;;;4984749;28;25101;-75
2023/08/22 05:12:57;;;;;;;17.35;9.35;;;;;;;;;;4997447;28;25062;-73
2023/08/22 05:15:23;;;;;;;18.52;9.45;;;;;;;;;;4995115;28;25071;-73
2023/08/22 05:17:49;;;;;;;15.43;9.43;;;;;;;;;;4985232;28;25190;-73
2023/08/22 05:20:15;;;;;;;14.82;9.13;;;;;;;;;;4991112;28;25070;-75
2023/08/22 05:22:41;;;;;;;15.20;8.48;;;;;;;;;;4990801;28;25076;-74
2023/08/22 05:25:08;;;;;;;12.88;8.13;;;;;;;;;;4998898;28;25053;-72
2023/08/22 05:27:34;;;;;;;15.27;8.38;;;;;;;;;;4991568;28;25058;-71
2023/08/22 05:30:00;;;;;;;13.45;7.93;;;;;;;;;;5000314;28;25106;-72
2023/08/22 05:32:26;;;;;;;10.50;6.68;;;;;;;;;;4989342;28;25052;-73
2023/08/22 05:34:52;;;;;;;15.93;7.47;;;;;;;;;;4993753;28;25134;-73
2023/08/22 05:37:19;;;;;;;14.07;7.53;;;;;;;;;;4989886;28;25051;-72
2023/08/22 05:39:45;;;;;;;13.23;7.43;;;;;;;;;;4982400;28;25082;-73
2023/08/22 05:42:11;;;;;;;16.27;7.93;;;;;;;;;;4993533;28;25078;-71
2023/08/22 05:44:37;;;;;;;14.65;7.10;;;;;;;;;;4997086;28;25074;-74
2023/08/22 05:47:04;;;;;;;11.25;7.22;;;;;;;;;;4985207;28;25070;-74
2023/08/22 05:49:30;;;;;;;16.42;7.00;;;;;;;;;;4982266;28;25088;-75
2023/08/22 05:52:03;;;;;;;14.18;7.00;;;;;;;;;;4996034;28;25061;-72
2023/08/22 05:54:30;;;;;;;16.27;6.80;;;;;;;;;;4977768;28;25074;-75
2023/08/22 05:56:56;;;;;;;16.70;6.30;;;;;;;;;;4982776;28;25102;-72
2023/08/22 05:59:23;;;;;;;9.25;5.75;;;;;;;;;;4977295;28;25057;-70
2023/08/22 06:01:49;;;;;;;10.20;5.90;;;;;;;;;;4988776;28;25059;-73
2023/08/22 06:04:17;;;;;;;16.33;5.68;;;;;;;;;;4982272;28;25163;-74
2023/08/22 06:06:43;;;;;;;11.85;5.13;;;;;;;;;;4985815;28;25391;-73
2023/08/22 06:09:09;;;;;;;17.40;6.53;;;;;;;;;;4985470;28;25070;-74
2023/08/22 06:11:35;;;;;;;9.07;5.10;;;;;;;;;;4980862;28;25104;-71
2023/08/22 06:14:01;;;;;;;11.38;4.75;;;;;;;;;;4982183;28;25093;-73
2023/08/22 06:16:27;;;;;;;14.98;5.20;;;;;;;;;;4980952;28;25146;-73
2023/08/22 06:18:53;;;;;;;10.52;4.68;;;;;;;;;;4982926;28;25055;-74
2023/08/22 06:21:19;;;;;;;10.77;5.20;;;;;;;;;;4981595;28;25128;-74
2023/08/22 06:23:45;;;;;;;14.95;4.95;;;;;;;;;;4994942;28;25057;-72
2023/08/22 06:26:13;;;;;;;17.50;7.22;;;;;;;;;;4977309;28;25059;-74
2023/08/22 06:28:39;;;;;;;18.75;6.68;;;;;;;;;;4973552;28;25118;-73
2023/08/22 06:31:06;;;;;;;20.10;6.53;;;;;;;;;;4978425;28;25064;-73
2023/08/22 06:33:32;;;;;;;13.57;5.78;;;;;;;;;;4977208;28;25054;-72
2023/08/22 06:35:58;;;;;;;12.70;6.03;;;;;;;;;;4986017;28;25368;-73
2023/08/22 06:38:24;;;;;;;12.57;5.00;;;;;;;;;;4994886;28;25072;-73
2023/08/22 06:40:50;;;;;;;12.35;5.20;;;;;;;;;;4984838;28;25072;-73
2023/08/22 06:43:16;;;;;;;9.32;5.22;;;;;;;;;;4990233;28;25073;-73
2023/08/22 06:45:43;;;;;;;10.20;5.82;;;;;;;;;;4990001;28;25141;-73
2023/08/22 06:48:09;;;;;;;14.65;6.07;;;;;;;;;;4972529;28;25096;-74
2023/08/22 06:50:35;;;;;;;9.18;5.45;;;;;;;;;;4987973;28;25087;-73
2023/08/22 06:53:01;;;;;;;12.40;6.07;;;;;;;;;;4980533;28;25078;-74
2023/08/22 06:55:27;;;;;;;14.68;5.75;;;;;;;;;;4987330;28;25072;-73
2023/08/22 06:57:53;;;;;;;11.82;6.05;;;;;;;;;;4992927;28;25126;-74
2023/08/22 07:00:19;;;;;;;12.95;6.75;;;;;;;;;;4979366;28;25157;-74
2023/08/22 07:02:46;;;;;;;18.13;7.18;;;;;;;;;;4979043;28;25144;-73
2023/08/22 07:05:13;;;;;;;12.32;7.10;;;;;;;;;;4979893;28;25151;-73
2023/08/22 07:07:39;;;;;;;13.07;6.47;;;;;;;;;;4989953;28;25167;-72
2023/08/22 07:10:06;;;;;;;14.07;6.70;;;;;;;;;;4991206;28;25059;-74
2023/08/22 07:12:32;;;;;;;13.73;7.18;;;;;;;;;;4974534;28;25072;-73
2023/08/22 07:14:58;;;;;;;15.00;7.70;;;;;;;;;;4990515;28;25169;-72
2023/08/22 07:17:24;;;;;;;14.68;6.78;;;;;;;;;;4966502;28;25050;-73
2023/08/22 07:19:50;;;;;;;11.68;7.03;;;;;;;;;;4981073;28;25083;-73
2023/08/22 07:22:16;;;;;;;13.48;6.90;;;;;;;;;;4989425;28;25066;-72
2023/08/22 07:24:42;;;;;;;12.45;5.93;;;;;;;;;;4971354;28;25099;-72
2023/08/22 07:27:11;;;;;;;13.98;7.03;;;;;;;;;;4977462;28;25118;-75
2023/08/22 07:29:37;;;;;;;15.40;6.40;;;;;;;;;;4991264;28;25079;-74
2023/08/22 07:32:03;;;;;;;12.68;5.75;;;;;;;;;;4979562;28;25069;-74
2023/08/22 07:34:29;;;;;;;13.80;6.45;;;;;;;;;;4973703;28;25075;-75
2023/08/22 07:36:55;;;;;;;12.07;5.60;;;;;;;;;;4978687;28;25170;-74
2023/08/22 07:39:21;;;;;;;9.48;5.40;;;;;;;;;;4981519;28;25181;-73
2023/08/22 07:41:47;;;;;;;10.43;5.43;;;;;;;;;;4987007;28;25074;-74
2023/08/22 07:44:14;;;;;;;19.80;6.43;;;;;;;;;;4977976;28;25075;-74
2023/08/22 07:46:40;;;;;;;10.90;6.22;;;;;;;;;;4976808;28;25193;-75
2023/08/22 07:49:07;;;;;;;8.27;6.15;;;;;;;;;;4978652;28;25082;-73
2023/08/22 07:51:34;;;;;;;11.50;6.57;;;;;;;;;;4977679;28;25097;-75
2023/08/22 07:54:01;;;;;;;12.48;6.63;;;;;;;;;;4978159;28;25076;-73
2023/08/22 07:56:27;;;;;;;14.63;7.47;;;;;;;;;;4981071;28;25067;-73
2023/08/22 07:58:53;;;;;;;14.05;8.02;;;;;;;;;;4981641;28;25058;-73
2023/08/22 08:01:19;;;;;;;11.38;7.15;;;;;;;;;;4988679;28;25055;-75
2023/08/22 08:03:45;;;;;;;13.45;7.20;;;;;;;;;;4979068;28;25049;-74
2023/08/22 08:06:11;;;;;;;12.30;7.43;;;;;;;;;;4983754;28;25082;-73
2023/08/22 08:08:37;;;;;;;12.82;7.88;;;;;;;;;;4980040;28;25111;-76
2023/08/22 08:11:04;;;;;;;13.95;7.80;;;;;;;;;;4977067;28;25136;-75
2023/08/22 08:13:30;;;;;;;12.85;7.18;;;;;;;;;;4992207;28;25060;-74
2023/08/22 08:15:56;;;;;;;20.02;8.65;;;;;;;;;;4990735;28;25121;-72
2023/08/22 08:18:22;;;;;;;14.00;8.10;;;;;;;;;;4981215;28;25089;-74
2023/08/22 08:20:48;;;;;;;20.40;9.15;;;;;;;;;;4984091;28;25057;-74
2023/08/22 08:23:14;;;;;;;14.32;8.93;;;;;;;;;;4989701;28;25089;-76
2023/08/22 08:25:40;;;;;;;16.52;8.70;;;;;;;;;;4989302;28;25062;-75
2023/08/22 08:28:06;;;;;;;18.23;9.00;;;;;;;;;;4986590;28;25137;-75
2023/08/22 08:30:32;;;;;;;18.30;9.70;;;;;;;;;;4978712;28;25093;-74
2023/08/22 08:32:58;;;;;;;14.45;8.88;;;;;;;;;;4969296;28;25165;-74
2023/08/22 08:35:24;;;;;;;17.40;8.88;;;;;;;;;;4984519;28;25096;-73
2023/08/22 08:37:52;;;;;;;13.70;9.15;;;;;;;;;;4969955;28;25073;-73
2023/08/22 08:40:18;;;;;;;15.40;8.35;;;;;;;;;;4979966;28;25052;-75
2023/08/22 08:42:44;;;;;;;17.33;9.07;;;;;;;;;;4985494;28;25154;-74
2023/08/22 08:45:11;;;;;;;15.63;8.73;;;;;;;;;;4985303;28;25051;-75
2023/08/22 08:47:39;;;;;;;14.80;8.63;;;;;;;;;;4976245;28;25055;-76
2023/08/22 08:50:09;;;;;;;12.88;7.45;;;;;;;;;;4980891;28;25139;-76
2023/08/22 08:52:35;;;;;;;13.32;8.35;;;;;;;;;;4976691;28;25111;-73
2023/08/22 08:55:03;;;;;;;15.88;7.55;;;;;;;;;;4988632;28;25057;-73
2023/08/22 08:57:29;;;;;;;14.43;6.93;;;;;;;;;;4986064;28;25063;-76
2023/08/22 08:59:55;;;;;;;10.82;6.20;;;;;;;;;;4987782;28;25086;-72
2023/08/22 09:02:21;;;;;;;13.20;7.05;;;;;;;;;;4984982;28;25099;-73
2023/08/22 09:04:49;;;;;;;12.90;5.85;;;;;;;;;;4979234;28;25090;-74
2023/08/22 09:07:18;;;;;;;9.63;5.45;;;;;;;;;;4981135;28;25124;-74
2023/08/22 09:09:44;;;;;;;10.95;6.35;;;;;;;;;;4989434;28;25051;-75
2023/08/22 09:12:10;;;;;;;11.50;6.00;;;;;;;;;;4985206;28;25063;-73
2023/08/22 09:14:44;;;;;;;12.18;6.13;;;;;;;;;;4986944;28;25109;-76
2023/08/22 09:17:13;;;;;;;11.52;5.40;;;;;;;;;;4979333;28;25134;-76
2023/08/22 09:19:40;;;;;;;11.38;5.93;;;;;;;;;;4984460;28;25165;-76
2023/08/22 09:22:06;;;;;;;9.85;6.47;;;;;;;;;;4981128;28;25085;-75
2023/08/22 09:24:32;;;;;;;9.60;4.07;;;;;;;;;;4982418;28;25134;-75
2023/08/22 09:27:01;;;;;;;12.10;5.22;;;;;;;;;;4982395;28;25061;-74
2023/08/22 09:29:28;;;;;;;16.17;4.90;;;;;;;;;;4984682;28;25098;-76
2023/08/22 09:31:58;;;;;;;12.27;6.60;;;;;;;;;;4984655;28;25110;-74
2023/08/22 09:34:24;;;;;;;11.40;5.70;;;;;;;;;;4985089;28;25052;-74
2023/08/22 09:36:52;;;;;;;7.03;4.68;;;;;;;;;;4989693;28;25124;-73
2023/08/22 09:39:19;;;;;;;12.00;5.03;;;;;;;;;;4973756;28;25043;-73
2023/08/22 09:41:45;;;;;;;11.63;4.97;;;;;;;;;;4986669;28;25052;-71
2023/08/22 09:44:12;;;;;;;12.50;6.95;;;;;;;;;;4978717;28;25076;-73
2023/08/22 09:46:41;;;;;;;13.02;6.03;;;;;;;;;;4977434;28;25083;-74
2023/08/22 09:49:07;;;;;;;20.63;7.07;;;;;;;;;;4988549;28;25070;-74
2023/08/22 09:51:33;;;;;;;12.88;5.85;;;;;;;;;;4975532;28;25126;-76
2023/08/22 09:54:00;;;;;;;12.98;5.30;;;;;;;;;;4976756;28;25092;-74
2023/08/22 09:56:27;;;;;;;14.43;6.13;;;;;;;;;;4984708;28;25081;-74
2023/08/22 09:58:53;;;;;;;13.75;4.63;;;;;;;;;;4987990;28;25120;-74
2023/08/22 10:01:20;;;;;;;6.95;4.25;;;;;;;;;;4978481;28;25105;-73
2023/08/22 10:03:50;;;;;;;9.32;3.95;;;;;;;;;;4977264;28;25097;-74
2023/08/22 10:06:16;;;;;;;9.45;4.85;;;;;;;;;;4992624;28;25067;-74
2023/08/22 10:08:45;;;;;;;9.60;3.90;;;;;;;;;;4985906;28;25107;-75
2023/08/22 10:11:12;;;;;;;9.82;4.70;;;;;;;;;;4992480;28;25103;-75
2023/08/22 10:13:39;;;;;;;8.63;4.13;;;;;;;;;;4986339;28;25054;-74
2023/08/22 10:16:05;;;;;;;5.72;3.30;;;;;;;;;;4987666;28;25075;-74
2023/08/22 10:18:31;;;;;;;6.38;3.40;;;;;;;;;;4983493;28;25135;-72
2023/08/22 10:20:57;;;;;;;6.85;2.55;;;;;;;;;;4984431;28;25093;-75
2023/08/22 10:23:42;;;;;;;6.32;2.60;;;;;;;;;;4970029;28;25144;-75
2023/08/22 10:26:08;;;;;;;6.55;2.42;;;;;;;;;;4998426;28;25163;-75
2023/08/22 10:28:41;;;;;;;6.00;2.35;;;;;;;;;;4984681;28;25117;-74
2023/08/22 10:31:07;;;;;;;3.47;2.20;;;;;;;;;;4985461;28;25055;-74
2023/08/22 10:33:33;;;;;;;10.02;2.53;;;;;;;;;;4979993;28;25111;-75
2023/08/22 10:36:02;;;;;;;5.68;2.95;;;;;;;;;;4985259;28;25056;-75
2023/08/22 10:38:28;;;;;;;4.90;2.75;;;;;;;;;;4980582;28;25102;-74
2023/08/22 10:40:55;;;;;;;10.95;3.78;;;;;;;;;;4986002;28;25071;-75
2023/08/22 10:43:36;;;;;;;6.05;2.80;;;;;;;;;;5002136;28;25068;-74
2023/08/22 10:46:02;;;;;;;6.82;2.80;;;;;;;;;;4999624;28;25097;-76
2023/08/22 10:48:28;;;;;;;7.20;2.20;;;;;;;;;;4993239;28;25077;-74
2023/08/22 10:51:05;;;;;;;3.67;1.83;;;;;;;;;;5010389;28;25063;-75
2023/08/22 10:53:31;;;;;;;5.57;1.90;;;;;;;;;;4994037;28;25056;-75
2023/08/22 10:56:16;;;;;;;5.78;2.20;;;;;;;;;;4989571;28;25062;-73
2023/08/22 10:58:42;;;;;;;6.75;1.77;;;;;;;;;;5002199;28;25070;-75
2023/08/22 11:01:11;;;;;;;4.18;2.17;;;;;;;;;;4991244;28;25057;-74
2023/08/22 11:03:38;;;;;;;5.85;1.98;;;;;;;;;;4998739;28;25094;-73
2023/08/22 11:06:11;;;;;;;3.95;2.33;;;;;;;;;;4991810;28;25080;-73
2023/08/22 11:08:38;;;;;;;4.93;1.58;;;;;;;;;;4986487;28;25146;-77
2023/08/22 11:11:05;;;;;;;5.82;2.67;;;;;;;;;;4997657;28;25058;-74
2023/08/22 11:13:40;;;;;;;4.97;2.03;;;;;;;;;;5006619;28;25104;-74
2023/08/22 11:16:13;;;;;;;4.43;1.80;;;;;;;;;;4990477;28;25140;-74
2023/08/22 11:18:40;;;;;;;6.15;2.22;;;;;;;;;;5000196;28;25125;-75
2023/08/22 11:21:07;;;;;;;4.75;2.03;;;;;;;;;;4984661;28;25071;-74
2023/08/22 11:23:34;;;;;;;4.10;1.35;;;;;;;;;;4989591;28;25088;-74
2023/08/22 11:26:02;;;;;;;8.57;2.60;;;;;;;;;;4996431;28;25079;-73
2023/08/22 11:28:31;;;;;;;7.57;2.42;;;;;;;;;;4974616;28;25067;-73
2023/08/22 11:30:57;;;;;;;7.40;2.42;;;;;;;;;;4962530;28;25099;-72
2023/08/22 11:33:23;;;;;;;8.05;1.88;;;;;;;;;;4961887;28;25100;-73
2023/08/22 11:35:50;;;;;;;5.78;1.30;;;;;;;;;;4970251;28;25089;-74
2023/08/22 11:38:15;;;;;;;4.82;1.27;;;;;;;;;;4965643;28;25055;-73
2023/08/22 11:40:42;;;;;;;3.60;1.52;;;;;;;;;;4989712;28;25053;-73
2023/08/22 11:43:09;;;;;;;6.63;2.30;;;;;;;;;;5002903;28;25127;-74
2023/08/22 11:45:45;;;;;;;3.05;1.77;;;;;;;;;;4991285;28;25081;-74
2023/08/22 11:48:11;;;;;;;6.03;1.65;;;;;;;;;;4993945;28;25184;-74
2023/08/22 11:50:37;;;;;;;9.65;1.90;;;;;;;;;;4994576;28;25054;-74
2023/08/22 11:53:11;;;;;;;3.33;1.35;;;;;;;;;;4999214;28;25139;-76
2023/08/22 11:55:38;;;;;;;5.93;1.35;;;;;;;;;;4988873;28;25054;-74
2023/08/22 11:58:05;;;;;;;5.63;1.48;;;;;;;;;;4995809;28;25056;-75
2023/08/22 12:00:32;;;;;;;4.80;1.00;;;;;;;;;;4999991;28;25046;-75
2023/08/22 12:02:59;;;;;;;5.53;1.77;;;;;;;;;;4984359;28;25057;-74
2023/08/22 12:05:29;;;;;;;4.97;1.60;;;;;;;;;;4990503;28;25087;-74
2023/08/22 12:07:55;;;;;;;3.03;1.23;;;;;;;;;;4991256;28;25121;-74
2023/08/22 12:10:21;;;;;;;4.80;1.33;;;;;;;;;;4998163;28;25057;-74
2023/08/22 12:12:47;;;;;;;3.53;1.23;;;;;;;;;;4996033;28;25080;-74
2023/08/22 12:15:13;;;;;;;3.75;1.23;;;;;;;;;;4994704;28;25069;-75
2023/08/22 12:17:39;;;;;;;3.75;1.52;;;;;;;;;;4999866;28;25057;-75
2023/08/22 12:20:05;;;;;;;5.28;1.27;;;;;;;;;;5008117;28;25065;-75
2023/08/22 12:22:31;;;;;;;1.95;0.93;;;;;;;;;;5001737;28;25098;-75
2023/08/22 12:24:57;;;;;;;1.60;1.23;;;;;;;;;;4997762;28;25099;-74
2023/08/22 12:27:27;;;;;;;5.35;1.20;;;;;;;;;;4978693;28;25078;-74
2023/08/22 12:29:53;;;;;;;3.55;1.10;;;;;;;;;;4990147;28;25101;-74
2023/08/22 12:32:19;;;;;;;5.05;1.77;;;;;;;;;;4985435;28;25498;-74
2023/08/22 12:34:45;;;;;;;5.03;1.33;;;;;;;;;;4989973;28;25057;-75
2023/08/22 12:37:11;;;;;;;6.28;1.40;;;;;;;;;;4986339;28;25123;-71
2023/08/22 12:39:37;;;;;;;5.40;1.85;;;;;;;;;;4993745;28;25063;-75
2023/08/22 12:42:03;;;;;;;10.93;1.77;;;;;;;;;;4983022;28;25116;-74
2023/08/22 12:44:29;;;;;;;6.05;1.88;;;;;;;;;;4983697;28;25068;-74
2023/08/22 12:46:58;;;;;;;6.70;1.75;;;;;;;;;;4989981;28;25077;-73
2023/08/22 12:49:24;;;;;;;9.20;2.60;;;;;;;;;;4978850;28;25054;-73
2023/08/22 12:51:50;;;;;;;7.03;2.70;;;;;;;;;;4969887;28;25078;-74
2023/08/22 12:54:16;;;;;;;5.88;2.65;;;;;;;;;;4980386;28;25048;-72
2023/08/22 12:56:42;;;;;;;5.70;1.88;;;;;;;;;;4986168;28;25078;-74
2023/08/22 12:59:08;;;;;;;7.57;2.70;;;;;;;;;;4969667;28;25143;-74
2023/08/22 13:01:34;;;;;;;6.55;2.85;;;;;;;;;;4989471;28;25082;-74
2023/08/22 13:04:00;;;;;;;6.70;2.58;;;;;;;;;;4988457;28;25162;-74
2023/08/22 13:06:26;;;;;;;6.50;2.53;;;;;;;;;;4983088;28;25115;-74
2023/08/22 13:08:54;;;;;;;5.63;2.53;;;;;;;;;;4973973;28;25079;-75
2023/08/22 13:11:20;;;;;;;5.22;2.10;;;;;;;;;;4988493;28;25077;-74
2023/08/22 13:13:46;;;;;;;5.55;2.55;;;;;;;;;;4974025;28;25066;-75
2023/08/22 13:16:12;;;;;;;6.63;2.63;;;;;;;;;;4979820;28;25095;-74
2023/08/22 13:18:38;;;;;;;4.25;2.40;;;;;;;;;;4988318;28;25192;-76
2023/08/22 13:21:04;;;;;;;7.70;2.30;;;;;;;;;;4988165;28;25114;-73
2023/08/22 13:23:30;;;;;;;4.88;2.00;;;;;;;;;;4980049;28;25084;-73
2023/08/22 13:25:56;;;;;;;6.07;2.22;;;;;;;;;;4984879;28;25104;-74
2023/08/22 13:28:22;;;;;;;6.78;2.15;;;;;;;;;;4986028;28;25092;-76
2023/08/22 13:30:48;;;;;;;5.85;1.70;;;;;;;;;;4985602;28;25057;-75
2023/08/22 13:33:14;;;;;;;4.18;1.90;;;;;;;;;;4977218;28;25163;-75
2023/08/22 13:35:40;;;;;;;7.05;2.38;;;;;;;;;;4985210;28;25062;-76
2023/08/22 13:38:06;;;;;;;6.38;2.33;;;;;;;;;;4989593;28;25067;-74
2023/08/22 13:40:33;;;;;;;6.60;2.38;;;;;;;;;;4989914;28;25080;-75
2023/08/22 13:42:59;;;;;;;5.78;2.13;;;;;;;;;;4977025;28;25055;-74
2023/08/22 13:45:25;;;;;;;10.65;2.47;;;;;;;;;;4985055;28;25056;-76
2023/08/22 13:47:54;;;;;;;4.97;3.00;;;;;;;;;;4980592;28;25069;-75
2023/08/22 13:50:20;;;;;;;10.98;2.88;;;;;;;;;;4981404;28;25080;-74
2023/08/22 13:52:46;;;;;;;9.45;2.70;;;;;;;;;;4976299;28;25057;-74
2023/08/22 13:55:12;;;;;;;3.72;2.25;;;;;;;;;;4984472;28;25139;-75
2023/08/22 13:57:38;;;;;;;5.15;2.25;;;;;;;;;;4977920;28;25109;-74
2023/08/22 14:00:05;;;;;;;9.70;2.25;;;;;;;;;;4981618;28;25098;-75
2023/08/22 14:02:31;;;;;;;5.72;2.05;;;;;;;;;;4978474;28;25144;-72
2023/08/22 14:04:57;;;;;;;6.32;2.53;;;;;;;;;;4979767;28;25135;-74
2023/08/22 14:07:23;;;;;;;6.15;2.88;;;;;;;;;;4976559;28;25068;-73
2023/08/22 14:09:50;;;;;;;5.07;2.00;;;;;;;;;;4978723;28;25072;-74
2023/08/22 14:12:16;;;;;;;6.38;2.10;;;;;;;;;;4992194;28;25127;-74
2023/08/22 14:14:42;;;;;;;4.40;2.15;;;;;;;;;;4976184;28;25065;-74
2023/08/22 14:17:08;;;;;;;2.95;2.05;;;;;;;;;;4980825;28;25143;-75
2023/08/22 14:19:34;;;;;;;3.88;1.75;;;;;;;;;;4987681;28;25075;-77
2023/08/22 14:22:00;;;;;;;3.53;2.13;;;;;;;;;;4982097;28;25072;-73
2023/08/22 14:24:26;;;;;;;6.50;1.70;;;;;;;;;;4984019;28;25048;-74
2023/08/22 14:26:52;;;;;;;4.15;1.90;;;;;;;;;;4997225;28;25107;-75
2023/08/22 14:29:19;;;;;;;7.30;2.70;;;;;;;;;;4986260;28;25095;-75
2023/08/22 14:31:45;;;;;;;8.13;2.88;;;;;;;;;;4984376;28;25069;-74